Terminal Aerodrome Forecast
Issued by NWS Glasgow, MT

Home | Current Version | Previous Version | Text Only | Print | Product List | Glossary On
Versions: 1 2 3 4 5 6 7 8 9 10 11 12 13 14 15 16 17
177
FTUS45 KGGW 272033 AAC
TAFGGW
TAF AMD
KGGW 272033Z 2721/2818 08008KT P6SM SCT015
     FM280000 11008KT P6SM BKN035
     FM280100 11009KT P6SM BKN030
     FM280300 11010KT P6SM BKN015=

USA.gov is the U.S. government's official web portal to all federal, state and local government web resources and services.